createdAt,value
2022-08-17T00:02:26.614Z,100524.29
2022-08-17T00:04:59.206Z,100525.16
2022-08-17T00:07:31.045Z,100525.86
2022-08-17T00:10:03.688Z,100523.16
2022-08-17T00:12:44.675Z,100528.11
2022-08-17T00:15:17.217Z,100533.43
2022-08-17T00:17:51.787Z,100531.08
2022-08-17T00:20:32.088Z,100532.81
2022-08-17T00:23:10.048Z,100534.18
2022-08-17T00:25:43.435Z,100533.41
2022-08-17T00:28:16.291Z,100536.95
2022-08-17T00:30:53.125Z,100533.32
2022-08-17T00:33:32.342Z,100534.70
2022-08-17T00:36:06.113Z,100539.80
2022-08-17T00:38:39.079Z,100540.80
2022-08-17T00:41:15.260Z,100537.28
2022-08-17T00:43:52.313Z,100544.59
2022-08-17T00:46:26.398Z,100541.14
2022-08-17T00:49:01.401Z,100538.42
2022-08-17T00:51:38.602Z,100538.04
2022-08-17T00:54:15.047Z,100539.43
2022-08-17T00:56:51.754Z,100541.20
2022-08-17T00:59:30.964Z,100544.55
2022-08-17T01:02:06.655Z,100542.73
2022-08-17T01:04:39.858Z,100537.71
2022-08-17T01:07:12.303Z,100533.92
2022-08-17T01:09:46.146Z,100527.29
2022-08-17T01:12:18.225Z,100526.56
2022-08-17T01:14:50.581Z,100529.02
2022-08-17T01:17:22.462Z,100530.04
2022-08-17T01:19:54.317Z,100529.46
2022-08-17T01:22:26.894Z,100533.19
2022-08-17T01:25:03.658Z,100539.02
2022-08-17T01:27:37.094Z,100540.26
2022-08-17T01:30:58.620Z,100538.45
2022-08-17T01:33:04.873Z,100537.34
2022-08-17T01:35:36.747Z,100542.84
2022-08-17T01:38:09.534Z,100546.21
2022-08-17T01:40:46.508Z,100543.50
2022-08-17T01:43:24.204Z,100541.65
2022-08-17T01:46:02.817Z,100542.50
2022-08-17T01:48:40.673Z,100538.19
2022-08-17T01:51:12.550Z,100539.59
2022-08-17T01:53:48.937Z,100539.89
2022-08-17T01:56:24.343Z,100539.87
2022-08-17T01:58:57.196Z,100539.49
2022-08-17T02:01:32.521Z,100541.08
2022-08-17T02:04:05.303Z,100546.38
2022-08-17T02:06:53.553Z,100541.91
2022-08-17T02:09:29.875Z,100541.34
2022-08-17T02:12:37.376Z,100539.71
2022-08-17T02:14:56.051Z,100538.25
2022-08-17T02:17:27.921Z,100533.58
2022-08-17T02:19:59.755Z,100534.46
2022-08-17T02:22:31.727Z,100533.36
2022-08-17T02:25:05.557Z,100527.98
2022-08-17T02:27:37.749Z,100526.55
2022-08-17T02:31:02.049Z,100526.13
2022-08-17T02:33:09.207Z,100528.58
2022-08-17T02:35:42.082Z,100525.52
2022-08-17T02:38:14.289Z,100522.64
2022-08-17T02:40:47.683Z,100520.13
2022-08-17T02:43:19.526Z,100521.88
2022-08-17T02:45:51.695Z,100523.63
2022-08-17T02:48:30.685Z,100522.00
2022-08-17T02:51:03.971Z,100524.64
2022-08-17T02:53:36.606Z,100524.43
2022-08-17T02:56:08.886Z,100523.34
2022-08-17T02:58:40.894Z,100528.50
2022-08-17T03:01:13.435Z,100529.17
2022-08-17T03:03:45.273Z,100528.80
2022-08-17T03:06:17.100Z,100527.91
2022-08-17T03:08:48.964Z,100529.12
2022-08-17T03:11:21.010Z,100528.94
2022-08-17T03:13:52.876Z,100531.79
2022-08-17T03:16:24.720Z,100534.08
2022-08-17T03:18:56.786Z,100535.66
2022-08-17T03:21:28.698Z,100534.02
2022-08-17T03:24:00.801Z,100538.42
2022-08-17T03:26:38.841Z,100536.80
2022-08-17T03:29:10.829Z,100535.86
2022-08-17T03:31:42.747Z,100539.76
2022-08-17T03:34:15.302Z,100539.77
2022-08-17T03:36:47.146Z,100540.98
2022-08-17T03:39:19.003Z,100547.91
2022-08-17T03:41:50.813Z,100548.25
2022-08-17T03:44:22.612Z,100553.56
2022-08-17T03:47:12.426Z,100553.20
2022-08-17T03:50:03.967Z,100554.80
2022-08-17T03:52:55.855Z,100556.36
2022-08-17T04:13:02.437Z,100571.10
2022-08-17T04:15:34.691Z,100575.75
2022-08-17T04:18:07.750Z,100578.21
2022-08-17T04:20:43.346Z,100580.52
2022-08-17T04:23:17.119Z,100580.19
2022-08-17T04:25:51.628Z,100579.52
2022-08-17T04:28:23.832Z,100579.23
2022-08-17T04:30:55.873Z,100579.60
2022-08-17T04:33:31.045Z,100583.73
2022-08-17T04:36:07.844Z,100587.33
2022-08-17T04:38:44.132Z,100588.92
2022-08-17T04:41:34.910Z,100587.17
2022-08-17T04:44:08.877Z,100586.15
2022-08-17T04:46:41.252Z,100585.48
2022-08-17T04:49:14.256Z,100585.91
2022-08-17T04:51:55.660Z,100587.11
2022-08-17T04:54:29.015Z,100579.25
2022-08-17T04:57:00.850Z,100583.34
2022-08-17T04:59:32.831Z,100586.27
2022-08-17T05:02:04.718Z,100589.90
2022-08-17T05:04:36.568Z,100587.83
2022-08-17T05:07:08.631Z,100588.08
2022-08-17T05:09:40.477Z,100591.71
2022-08-17T05:12:12.279Z,100594.45
2022-08-17T05:14:44.130Z,100601.11
2022-08-17T05:17:16.266Z,100602.80
2022-08-17T05:19:52.003Z,100605.66
2022-08-17T05:22:26.567Z,100606.88
2022-08-17T05:24:58.622Z,100606.89
2022-08-17T05:27:35.501Z,100607.95
2022-08-17T05:30:09.657Z,100604.59
2022-08-17T05:32:41.525Z,100601.30
2022-08-17T05:35:15.758Z,100601.05
2022-08-17T05:37:50.924Z,100603.13
2022-08-17T05:41:17.112Z,100605.75
2022-08-17T05:43:53.002Z,100604.44
2022-08-17T05:46:31.634Z,100606.51
2022-08-17T05:49:08.425Z,100603.23
2022-08-17T05:52:19.861Z,100602.86
2022-08-17T05:55:06.109Z,100605.53
2022-08-17T05:57:53.712Z,100605.71
2022-08-17T06:00:30.738Z,100609.05
2022-08-17T06:03:27.052Z,100611.30
2022-08-17T06:06:08.560Z,100616.58
2022-08-17T06:08:52.014Z,100614.52
2022-08-17T06:11:31.182Z,100616.74
2022-08-17T06:14:17.377Z,100618.20
2022-08-17T06:16:56.146Z,100620.83
2022-08-17T06:19:34.605Z,100617.00
2022-08-17T06:22:09.699Z,100620.71
2022-08-17T06:24:47.682Z,100624.06
2022-08-17T06:27:25.508Z,100624.88
2022-08-17T06:30:05.528Z,100620.70
2022-08-17T06:32:39.112Z,100621.75
2022-08-17T06:35:15.738Z,100622.08
2022-08-17T06:37:59.413Z,100622.90
2022-08-17T06:41:00.134Z,100622.47
2022-08-17T06:43:48.187Z,100618.83
2022-08-17T06:46:26.134Z,100613.95
2022-08-17T06:49:12.367Z,100621.27
2022-08-17T06:51:50.640Z,100618.71
2022-08-17T06:54:35.096Z,100620.61
2022-08-17T07:00:40.797Z,100621.41
2022-08-17T07:03:21.013Z,100619.02
2022-08-17T07:05:55.989Z,100619.84
2022-08-17T07:08:35.424Z,100620.48
2022-08-17T07:11:13.134Z,100620.63
2022-08-17T07:13:52.057Z,100623.23
2022-08-17T07:16:29.178Z,100623.54
2022-08-17T07:19:01.253Z,100623.45
2022-08-17T07:21:46.131Z,100625.52
2022-08-17T07:24:31.032Z,100624.94
2022-08-17T07:27:16.514Z,100629.02
2022-08-17T07:29:52.054Z,100628.23
2022-08-17T07:32:27.393Z,100624.20
2022-08-17T07:35:15.404Z,100622.34
2022-08-17T07:37:53.225Z,100620.85
2022-08-17T07:40:33.484Z,100622.55
2022-08-17T07:43:13.057Z,100620.20
2022-08-17T07:46:16.866Z,100622.48
2022-08-17T07:48:50.855Z,100624.45
2022-08-17T07:51:31.856Z,100627.46
2022-08-17T07:54:22.708Z,100625.30
2022-08-17T07:56:57.669Z,100625.45
2022-08-17T07:59:33.832Z,100625.77
2022-08-17T08:02:31.677Z,100625.48
2022-08-17T08:05:30.828Z,100625.39
2022-08-17T08:08:23.677Z,100625.81
2022-08-17T08:11:06.371Z,100624.80
2022-08-17T08:13:42.779Z,100623.08
2022-08-17T08:16:30.209Z,100626.90
2022-08-17T08:19:03.400Z,100630.00
2022-08-17T08:21:47.773Z,100633.65
2022-08-17T08:24:37.525Z,100628.84
2022-08-17T08:27:19.852Z,100635.55
2022-08-17T08:29:58.391Z,100635.64
2022-08-17T08:32:57.229Z,100638.75
2022-08-17T08:35:34.605Z,100639.52
2022-08-17T08:38:15.803Z,100640.83
2022-08-17T08:41:03.468Z,100639.95
2022-08-17T08:43:50.791Z,100637.65
2022-08-17T08:46:35.456Z,100638.74
2022-08-17T08:49:59.557Z,100640.75
2022-08-17T08:52:39.600Z,100634.33
2022-08-17T08:55:19.371Z,100637.41
2022-08-17T08:57:57.967Z,100632.79
2022-08-17T09:00:35.923Z,100634.82
2022-08-17T09:03:31.562Z,100636.27
2022-08-17T09:06:37.359Z,100638.44
2022-08-17T09:09:26.638Z,100635.23
2022-08-17T09:12:05.509Z,100627.70
2022-08-17T09:14:45.152Z,100627.70
2022-08-17T09:17:23.072Z,100625.73
2022-08-17T09:20:00.409Z,100620.15
2022-08-17T09:22:37.518Z,100622.69
2022-08-17T09:25:14.788Z,100621.98
2022-08-17T09:27:57.520Z,100621.11
2022-08-17T09:30:42.605Z,100615.71
2022-08-17T09:33:18.397Z,100621.65
2022-08-17T09:35:54.886Z,100620.92
2022-08-17T09:38:33.138Z,100620.75
2022-08-17T09:41:14.956Z,100616.95
2022-08-17T09:43:54.635Z,100622.17
2022-08-17T09:46:30.778Z,100617.66
2022-08-17T09:49:09.799Z,100610.46
2022-08-17T09:51:48.748Z,100609.73
2022-08-17T09:54:42.773Z,100605.56
2022-08-17T09:57:31.064Z,100602.32
2022-08-17T10:00:17.185Z,100602.66
2022-08-17T10:03:18.051Z,100601.55
2022-08-17T10:06:09.055Z,100602.08
2022-08-17T10:08:52.691Z,100602.23
2022-08-17T10:11:50.262Z,100604.59
2022-08-17T10:14:43.830Z,100598.06
2022-08-17T10:17:26.278Z,100601.09
2022-08-17T10:20:07.051Z,100601.00
2022-08-17T10:23:04.988Z,100595.77
2022-08-17T10:26:01.527Z,100595.39
2022-08-17T10:28:40.523Z,100593.77
2022-08-17T10:31:39.479Z,100590.50
2022-08-17T10:34:49.148Z,100587.21
2022-08-17T10:37:48.176Z,100588.24
2022-08-17T10:40:32.591Z,100588.92
2022-08-17T10:43:20.258Z,100589.55
2022-08-17T10:46:10.308Z,100585.36
2022-08-17T10:49:25.779Z,100584.25
2022-08-17T10:51:58.954Z,100584.85
2022-08-17T10:55:06.516Z,100586.25
2022-08-17T10:57:42.501Z,100583.38
2022-08-17T11:00:37.525Z,100586.25
2022-08-17T11:03:21.148Z,100582.73
2022-08-17T11:06:01.118Z,100581.23
2022-08-17T11:09:10.420Z,100580.83
2022-08-17T11:12:07.352Z,100577.19
2022-08-17T11:14:53.898Z,100573.77
2022-08-17T11:17:42.927Z,100580.43
2022-08-17T11:20:32.889Z,100581.12
2022-08-17T11:23:26.695Z,100584.11
2022-08-17T11:26:04.117Z,100588.42
2022-08-17T11:28:52.652Z,100585.32
2022-08-17T11:31:32.440Z,100580.80
2022-08-17T11:34:26.651Z,100582.74
2022-08-17T11:37:22.581Z,100580.02
2022-08-17T11:40:35.594Z,100579.30
2022-08-17T11:43:25.349Z,100584.17
2022-08-17T11:46:17.130Z,100577.48
2022-08-17T11:49:24.406Z,100575.52
2022-08-17T11:52:36.565Z,100575.50
2022-08-17T11:55:34.422Z,100574.82
2022-08-17T11:58:37.518Z,100572.23
2022-08-17T12:01:13.534Z,100573.70
2022-08-17T12:03:55.551Z,100574.59
2022-08-17T12:06:49.579Z,100572.04
2022-08-17T12:09:25.091Z,100573.08
2022-08-17T12:12:13.287Z,100576.64
2022-08-17T12:17:52.354Z,100580.41
2022-08-17T12:20:31.035Z,100580.55
2022-08-17T12:23:10.822Z,100574.08
2022-08-17T12:25:49.431Z,100576.52
2022-08-17T12:28:27.589Z,100570.09
2022-08-17T12:31:03.457Z,100573.23
2022-08-17T12:33:37.473Z,100567.95
2022-08-17T12:36:15.320Z,100570.03
2022-08-17T12:38:57.308Z,100569.66
2022-08-17T12:41:36.371Z,100575.39
2022-08-17T12:44:14.253Z,100567.58
2022-08-17T12:47:24.064Z,100566.34
2022-08-17T12:50:05.878Z,100567.70
2022-08-17T12:52:44.227Z,100566.70
2022-08-17T12:55:36.815Z,100563.23
2022-08-17T12:58:14.518Z,100563.58
2022-08-17T13:00:56.664Z,100562.41
2022-08-17T13:03:37.387Z,100556.90
2022-08-17T13:06:36.064Z,100555.23
2022-08-17T13:09:16.344Z,100559.13
2022-08-17T13:11:55.225Z,100556.27
2022-08-17T13:14:27.404Z,100552.11
2022-08-17T13:17:04.388Z,100550.05
2022-08-17T13:19:48.970Z,100546.30
2022-08-17T13:22:26.431Z,100547.32
2022-08-17T13:25:03.629Z,100545.67
2022-08-17T13:27:36.123Z,100546.56
2022-08-17T13:30:12.967Z,100549.21
2022-08-17T13:32:47.365Z,100544.25
2022-08-17T13:35:49.958Z,100536.14
2022-08-17T13:38:45.804Z,100537.56
2022-08-17T13:41:35.919Z,100536.18
2022-08-17T13:44:34.647Z,100534.48
2022-08-17T13:47:17.225Z,100532.80
2022-08-17T13:49:54.286Z,100535.08
2022-08-17T13:52:40.845Z,100530.16
2022-08-17T13:55:21.420Z,100529.61
2022-08-17T13:58:03.662Z,100527.98
2022-08-17T14:00:40.483Z,100531.06
2022-08-17T14:03:12.325Z,100527.94
2022-08-17T14:05:45.997Z,100527.23
2022-08-17T14:08:19.916Z,100526.77
2022-08-17T14:10:58.453Z,100529.48
2022-08-17T14:13:30.319Z,100531.10
2022-08-17T14:16:02.235Z,100541.23
2022-08-17T14:18:55.559Z,100536.52
2022-08-17T14:21:26.039Z,100541.75
2022-08-17T14:23:59.027Z,100535.94
2022-08-17T14:26:31.450Z,100530.83
2022-08-17T14:29:03.340Z,100531.88
2022-08-17T14:31:53.327Z,100538.94
2022-08-17T14:34:27.001Z,100537.29
2022-08-17T14:36:59.041Z,100538.94
2022-08-17T14:39:30.932Z,100539.20
2022-08-17T14:42:03.101Z,100533.45
2022-08-17T14:44:35.198Z,100532.16
2022-08-17T14:47:13.914Z,100530.15
2022-08-17T14:49:47.602Z,100529.58
2022-08-17T14:52:22.018Z,100532.45
2022-08-17T14:54:55.104Z,100537.18
2022-08-17T14:57:34.038Z,100543.48
2022-08-17T15:00:09.389Z,100539.65
2022-08-17T15:02:49.286Z,100536.88
2022-08-17T15:05:21.844Z,100532.23
2022-08-17T15:07:56.443Z,100532.17
2022-08-17T15:10:29.388Z,100533.77
2022-08-17T15:13:01.625Z,100524.67
2022-08-17T15:15:34.206Z,100524.53
2022-08-17T15:18:06.075Z,100528.02
2022-08-17T15:20:38.829Z,100526.54
2022-08-17T15:23:12.926Z,100528.02
2022-08-17T15:25:46.013Z,100524.52
2022-08-17T15:28:18.552Z,100526.73
2022-08-17T15:30:51.020Z,100528.39
2022-08-17T15:33:30.410Z,100531.83
2022-08-17T15:36:06.560Z,100532.21
2022-08-17T15:38:40.370Z,100527.52
2022-08-17T15:41:15.371Z,100527.67
2022-08-17T15:43:48.681Z,100527.15
2022-08-17T15:46:23.356Z,100529.71
2022-08-17T15:48:59.091Z,100527.95
2022-08-17T15:51:33.961Z,100528.70
2022-08-17T15:54:19.249Z,100530.12
2022-08-17T15:56:55.258Z,100533.49
2022-08-17T15:59:31.061Z,100533.16
2022-08-17T16:03:13.014Z,100533.59
2022-08-17T16:04:57.315Z,100531.48
2022-08-17T16:07:30.464Z,100530.53
2022-08-17T16:10:02.421Z,100524.32
2022-08-17T16:12:34.756Z,100528.09
2022-08-17T16:15:08.674Z,100530.91
2022-08-17T16:17:41.571Z,100535.98
2022-08-17T16:20:19.904Z,100535.40
2022-08-17T16:22:53.140Z,100537.17
2022-08-17T16:25:40.298Z,100533.34
2022-08-17T16:28:21.911Z,100536.61
2022-08-17T16:30:53.740Z,100540.05
2022-08-17T16:33:25.551Z,100541.38
2022-08-17T16:35:57.412Z,100543.95
2022-08-17T16:38:29.358Z,100547.45
2022-08-17T16:41:01.625Z,100554.21
2022-08-17T16:43:34.093Z,100557.43
2022-08-17T16:46:06.314Z,100558.48
2022-08-17T16:48:39.325Z,100560.40
2022-08-17T16:51:11.105Z,100558.20
2022-08-17T16:53:44.293Z,100564.33
2022-08-17T16:56:19.340Z,100568.11
2022-08-17T16:58:52.571Z,100574.39
2022-08-17T17:01:25.044Z,100578.00
2022-08-17T17:03:59.808Z,100578.34
2022-08-17T17:06:45.158Z,100581.78
2022-08-17T17:09:22.456Z,100587.77
2022-08-17T17:12:00.816Z,100588.09
2022-08-17T17:14:36.871Z,100588.23
2022-08-17T17:17:22.040Z,100589.61
2022-08-17T17:20:00.766Z,100590.84
2022-08-17T17:22:39.102Z,100589.88
2022-08-17T17:25:20.483Z,100592.86
2022-08-17T17:28:00.909Z,100593.48
2022-08-17T17:30:40.036Z,100598.81
2022-08-17T17:33:17.603Z,100601.05
2022-08-17T17:35:55.059Z,100600.06
2022-08-17T17:38:32.526Z,100596.70
2022-08-17T17:41:07.939Z,100599.48
2022-08-17T17:43:41.074Z,100601.17
2022-08-17T17:46:27.997Z,100600.13
2022-08-17T17:49:01.496Z,100599.46
2022-08-17T17:52:06.332Z,100602.95
2022-08-17T17:54:48.227Z,100607.34
2022-08-17T17:57:31.024Z,100609.55
2022-08-17T18:00:08.782Z,100609.04
2022-08-17T18:03:11.131Z,100605.66
2022-08-17T18:06:03.314Z,100608.25
2022-08-17T18:08:49.685Z,100610.84
2022-08-17T18:11:53.980Z,100610.86
2022-08-17T18:14:46.864Z,100615.80
2022-08-17T18:17:20.421Z,100617.63
2022-08-17T18:19:54.261Z,100618.03
2022-08-17T18:22:27.834Z,100618.96
2022-08-17T18:24:59.851Z,100624.77
2022-08-17T18:27:37.925Z,100632.55
2022-08-17T18:30:28.999Z,100632.92
2022-08-17T18:33:23.277Z,100639.46
2022-08-17T18:35:59.327Z,100641.82
2022-08-17T18:38:35.287Z,100642.39
2022-08-17T18:41:20.343Z,100645.85
2022-08-17T18:44:07.565Z,100645.51
2022-08-17T18:46:40.943Z,100647.51
2022-08-17T18:49:33.144Z,100641.59
2022-08-17T18:52:15.984Z,100644.30
2022-08-17T18:55:08.681Z,100645.21
2022-08-17T18:57:44.215Z,100650.25
2022-08-17T19:00:31.340Z,100649.00
2022-08-17T19:03:07.135Z,100648.47
2022-08-17T19:05:47.244Z,100652.08
2022-08-17T19:08:22.978Z,100651.73
2022-08-17T19:10:59.734Z,100651.73
2022-08-17T19:13:36.539Z,100656.23
2022-08-17T19:16:16.029Z,100658.21
2022-08-17T19:18:52.249Z,100661.64
2022-08-17T19:21:28.329Z,100665.41
2022-08-17T19:24:06.638Z,100666.14
2022-08-17T19:26:50.755Z,100672.08
2022-08-17T19:29:32.209Z,100674.05
2022-08-17T19:32:10.077Z,100675.98
2022-08-17T19:34:44.768Z,100677.96
2022-08-17T19:37:30.991Z,100678.85
2022-08-17T19:40:29.253Z,100680.46
2022-08-17T19:43:17.828Z,100680.63
2022-08-17T19:45:59.517Z,100680.26
2022-08-17T19:48:53.162Z,100675.73
2022-08-17T19:51:31.650Z,100680.23
2022-08-17T19:54:09.716Z,100680.02
2022-08-17T19:56:48.857Z,100683.24
2022-08-17T19:59:35.612Z,100682.52
2022-08-17T20:02:42.582Z,100685.36
2022-08-17T20:05:18.643Z,100692.17
2022-08-17T20:07:55.396Z,100692.15
2022-08-17T20:10:36.802Z,100682.40
2022-08-17T20:13:16.240Z,100681.47
2022-08-17T20:15:49.730Z,100679.13
2022-08-17T20:18:30.443Z,100682.52
2022-08-17T20:21:07.566Z,100680.90
2022-08-17T20:24:00.944Z,100682.30
2022-08-17T20:26:58.438Z,100680.86
2022-08-17T20:29:40.375Z,100682.28
2022-08-17T20:32:27.851Z,100680.83
2022-08-17T20:35:22.451Z,100679.18
2022-08-17T20:37:59.079Z,100683.11
2022-08-17T20:40:35.348Z,100686.86
2022-08-17T20:43:39.987Z,100685.77
2022-08-17T20:46:26.861Z,100680.16
2022-08-17T20:49:15.704Z,100676.17
2022-08-17T20:52:02.391Z,100670.40
2022-08-17T20:54:53.653Z,100665.17
2022-08-17T20:57:49.434Z,100671.98
2022-08-17T21:00:42.769Z,100675.02
2022-08-17T21:03:50.801Z,100673.92
2022-08-17T21:06:27.450Z,100680.55
2022-08-17T21:09:20.921Z,100682.48
2022-08-17T21:12:04.012Z,100686.20
2022-08-17T21:15:02.866Z,100684.38
2022-08-17T21:17:49.951Z,100687.23
2022-08-17T21:20:39.637Z,100684.34
2022-08-17T21:23:43.190Z,100688.64
2022-08-17T21:26:30.671Z,100691.12
2022-08-17T21:29:32.045Z,100696.49
2022-08-17T21:32:24.185Z,100698.80
2022-08-17T21:35:25.133Z,100705.08
2022-08-17T21:38:03.634Z,100711.55
2022-08-17T21:40:36.346Z,100710.45
2022-08-17T21:43:28.213Z,100706.83
2022-08-17T21:46:08.320Z,100704.12
2022-08-17T21:48:48.223Z,100702.30
2022-08-17T21:51:24.289Z,100708.02
2022-08-17T21:54:00.819Z,100703.33
2022-08-17T22:00:31.109Z,100702.39
2022-08-17T22:03:05.267Z,100702.35
2022-08-17T22:05:40.187Z,100701.80
2022-08-17T22:08:19.773Z,100699.09
2022-08-17T22:11:00.463Z,100698.19
2022-08-17T22:13:32.626Z,100694.75
2022-08-17T22:16:29.049Z,100703.33
2022-08-17T22:19:02.037Z,100710.31
2022-08-17T22:21:33.890Z,100713.17
2022-08-17T22:24:18.094Z,100712.25
2022-08-17T22:27:07.956Z,100713.30
2022-08-17T22:29:57.185Z,100716.70
2022-08-17T22:32:41.892Z,100710.38
2022-08-17T22:35:34.446Z,100710.52
2022-08-17T22:38:31.582Z,100708.34
2022-08-17T22:41:30.247Z,100707.60
2022-08-17T22:44:10.238Z,100703.79
2022-08-17T22:46:50.792Z,100699.42
2022-08-17T22:49:29.299Z,100692.56
2022-08-17T22:52:08.850Z,100695.07
2022-08-17T22:54:58.678Z,100695.21
2022-08-17T22:57:48.636Z,100693.37
2022-08-17T23:00:37.361Z,100689.58
2022-08-17T23:03:13.443Z,100691.69
2022-08-17T23:05:49.034Z,100694.70
2022-08-17T23:08:21.540Z,100695.04
2022-08-17T23:10:53.342Z,100696.99
2022-08-17T23:13:25.186Z,100706.30
2022-08-17T23:15:57.244Z,100701.96
2022-08-17T23:18:29.091Z,100702.30
2022-08-17T23:21:02.077Z,100702.29
2022-08-17T23:23:37.275Z,100703.88
2022-08-17T23:26:11.363Z,100701.17
2022-08-17T23:28:43.941Z,100704.40
2022-08-17T23:31:25.684Z,100703.84
2022-08-17T23:33:59.292Z,100709.56
2022-08-17T23:36:31.780Z,100706.66
2022-08-17T23:39:06.657Z,100709.34
2022-08-17T23:41:40.151Z,100710.92
2022-08-17T23:44:13.229Z,100715.91
2022-08-17T23:46:45.425Z,100717.67
2022-08-17T23:49:17.230Z,100719.98
2022-08-17T23:51:50.507Z,100721.22
2022-08-17T23:54:25.414Z,100716.33
